createdAt,value
2019-02-09T00:01:33.045Z,95377.21
2019-02-09T00:04:07.404Z,95372.33
2019-02-09T00:06:41.693Z,95372.75
2019-02-09T00:09:27.647Z,95366.73
2019-02-09T00:12:12.786Z,95373.07
2019-02-09T00:14:55.535Z,95373.86
2019-02-09T00:17:29.652Z,95369.56
2019-02-09T00:20:03.822Z,95373.05
2019-02-09T00:22:38.019Z,95365.57
2019-02-09T00:25:12.472Z,95362.64
2019-02-09T00:27:47.579Z,95357.88
2019-02-09T00:30:22.042Z,95355.09
2019-02-09T00:33:08.268Z,95347.05
2019-02-09T00:35:52.970Z,95352.58
2019-02-09T00:38:35.991Z,95349.89
2019-02-09T00:41:12.123Z,95343.59
2019-02-09T00:43:54.865Z,95344.23
2019-02-09T00:46:28.754Z,95332.97
2019-02-09T00:49:02.546Z,95334.45
2019-02-09T00:51:36.668Z,95331.34
2019-02-09T00:54:10.383Z,95332.01
2019-02-09T00:56:44.460Z,95325.62
2019-02-09T00:59:18.504Z,95328.80
2019-02-09T01:01:52.733Z,95326.78
2019-02-09T01:04:26.757Z,95325.08
2019-02-09T01:07:00.680Z,95326.38
2019-02-09T01:09:34.516Z,95322.78
2019-02-09T01:12:08.623Z,95322.51
2019-02-09T01:14:42.803Z,95322.53
2019-02-09T01:17:16.850Z,95319.89
2019-02-09T01:19:50.858Z,95315.48
2019-02-09T01:22:24.715Z,95312.57
2019-02-09T01:24:58.505Z,95317.38
2019-02-09T01:27:32.538Z,95312.98
2019-02-09T01:30:09.648Z,95315.83
2019-02-09T01:32:43.785Z,95319.73
2019-02-09T01:35:29.722Z,95312.02
2019-02-09T01:38:16.395Z,95314.99
2019-02-09T01:41:02.145Z,95315.48
2019-02-09T01:43:46.332Z,95323.84
2019-02-09T01:46:30.297Z,95319.49
2019-02-09T01:49:03.700Z,95311.67
2019-02-09T01:51:37.592Z,95315.16
2019-02-09T01:54:10.956Z,95308.84
2019-02-09T01:56:43.988Z,95311.41
2019-02-09T01:59:17.414Z,95306.72
2019-02-09T02:01:50.920Z,95313.20
2019-02-09T02:04:24.667Z,95307.38
2019-02-09T02:06:57.821Z,95310.97
2019-02-09T02:09:30.206Z,95303.46
2019-02-09T02:12:03.784Z,95309.66
2019-02-09T02:14:37.261Z,95319.50
2019-02-09T02:17:10.804Z,95315.27
2019-02-09T02:19:44.544Z,95322.45
2019-02-09T02:22:18.088Z,95309.89
2019-02-09T02:24:51.655Z,95311.52
2019-02-09T02:27:24.896Z,95307.81
2019-02-09T02:30:08.529Z,95311.03
2019-02-09T02:32:51.619Z,95313.15
2019-02-09T02:35:37.622Z,95313.52
2019-02-09T02:38:23.094Z,95307.02
2019-02-09T02:41:10.122Z,95304.28
2019-02-09T02:43:55.944Z,95308.36
2019-02-09T02:46:37.972Z,95306.44
2019-02-09T02:49:11.418Z,95306.94
2019-02-09T02:51:44.744Z,95308.89
2019-02-09T02:54:18.166Z,95311.05
2019-02-09T02:56:51.625Z,95309.91
2019-02-09T02:59:24.798Z,95311.86
2019-02-09T03:01:57.321Z,95312.84
2019-02-09T03:04:31.249Z,95311.70
2019-02-09T03:07:04.668Z,95316.13
2019-02-09T03:09:37.768Z,95318.22
2019-02-09T03:12:10.154Z,95321.52
2019-02-09T03:14:43.156Z,95323.95
2019-02-09T03:17:15.432Z,95321.67
2019-02-09T03:19:48.316Z,95311.25
2019-02-09T03:22:22.609Z,95318.77
2019-02-09T03:24:56.961Z,95315.48
2019-02-09T03:27:30.550Z,95317.11
2019-02-09T03:30:04.052Z,95311.70
2019-02-09T03:32:37.814Z,95322.13
2019-02-09T03:35:23.621Z,95324.25
2019-02-09T03:38:01.564Z,95322.45
2019-02-09T03:40:44.257Z,95322.09
2019-02-09T03:43:17.684Z,95324.38
2019-02-09T03:45:52.260Z,95328.48
2019-02-09T03:48:25.828Z,95321.64
2019-02-09T03:50:59.356Z,95326.34
2019-02-09T03:53:33.198Z,95326.01
2019-02-09T03:56:06.522Z,95329.10
2019-02-09T03:58:40.078Z,95327.44
2019-02-09T04:01:13.407Z,95334.77
2019-02-09T04:03:47.079Z,95332.78
2019-02-09T04:06:20.746Z,95329.34
2019-02-09T04:08:54.199Z,95332.94
2019-02-09T04:11:27.545Z,95326.69
2019-02-09T04:14:01.203Z,95329.94
2019-02-09T04:16:34.320Z,95330.76
2019-02-09T04:19:07.809Z,95330.23
2019-02-09T04:21:41.231Z,95327.94
2019-02-09T04:24:14.674Z,95331.52
2019-02-09T04:26:48.132Z,95317.26
2019-02-09T04:29:21.595Z,95324.08
2019-02-09T04:31:55.116Z,95319.94
2019-02-09T04:34:41.183Z,95313.03
2019-02-09T04:37:24.981Z,95321.36
2019-02-09T04:40:12.155Z,95323.95
2019-02-09T04:42:55.462Z,95321.84
2019-02-09T04:45:27.952Z,95321.99
2019-02-09T04:48:00.852Z,95326.67
2019-02-09T04:50:34.459Z,95325.86
2019-02-09T04:53:08.002Z,95334.09
2019-02-09T04:55:41.795Z,95322.12
2019-02-09T04:58:15.218Z,95320.97
2019-02-09T05:00:48.737Z,95322.91
2019-02-09T05:03:22.384Z,95327.00
2019-02-09T05:05:55.416Z,95322.91
2019-02-09T05:08:29.414Z,95316.87
2019-02-09T05:11:02.944Z,95320.55
2019-02-09T05:13:36.536Z,95319.27
2019-02-09T05:16:10.068Z,95318.76
2019-02-09T05:18:43.531Z,95313.69
2019-02-09T05:21:16.963Z,95316.58
2019-02-09T05:23:50.547Z,95319.02
2019-02-09T05:26:23.951Z,95312.70
2019-02-09T05:28:57.318Z,95311.20
2019-02-09T05:31:30.960Z,95311.67
2019-02-09T05:34:04.895Z,95314.78
2019-02-09T05:36:38.028Z,95321.23
2019-02-09T05:39:21.444Z,95316.70
2019-02-09T05:41:54.766Z,95316.41
2019-02-09T05:44:40.035Z,95316.30
2019-02-09T05:47:22.810Z,95322.02
2019-02-09T05:49:56.487Z,95322.14
2019-02-09T05:52:29.862Z,95321.20
2019-02-09T05:55:05.031Z,95320.02
2019-02-09T05:57:38.384Z,95317.88
2019-02-09T06:00:16.436Z,95325.36
2019-02-09T06:02:49.911Z,95330.17
2019-02-09T06:05:27.062Z,95334.94
2019-02-09T06:08:00.739Z,95335.52
2019-02-09T06:10:34.583Z,95338.63
2019-02-09T06:13:17.255Z,95340.65
2019-02-09T06:15:51.912Z,95344.05
2019-02-09T06:18:25.730Z,95344.70
2019-02-09T06:20:59.590Z,95346.45
2019-02-09T06:23:33.452Z,95349.63
2019-02-09T06:26:07.073Z,95354.44
2019-02-09T06:28:40.284Z,95356.73
2019-02-09T06:31:13.856Z,95354.54
2019-02-09T06:33:47.425Z,95353.54
2019-02-09T06:36:21.595Z,95355.12
2019-02-09T06:38:55.893Z,95349.13
2019-02-09T06:41:29.507Z,95349.47
2019-02-09T06:44:03.061Z,95353.59
2019-02-09T06:46:36.435Z,95350.09
2019-02-09T06:49:10.123Z,95355.11
2019-02-09T06:51:44.037Z,95354.76
2019-02-09T06:54:17.340Z,95355.84
2019-02-09T06:56:50.603Z,95357.88
2019-02-09T06:59:28.366Z,95356.00
2019-02-09T07:02:02.759Z,95358.13
2019-02-09T07:04:48.279Z,95366.44
2019-02-09T07:07:32.602Z,95352.83
2019-02-09T07:10:40.150Z,95354.67
2019-02-09T07:13:14.571Z,95353.98
2019-02-09T07:15:49.382Z,95356.07
2019-02-09T07:18:22.986Z,95352.63
2019-02-09T07:21:12.956Z,95358.27
2019-02-09T07:23:46.605Z,95358.86
2019-02-09T07:26:20.452Z,95358.44
2019-02-09T07:28:54.104Z,95361.97
2019-02-09T07:31:28.187Z,95361.95
2019-02-09T07:34:02.198Z,95362.62
2019-02-09T07:36:44.423Z,95365.08
2019-02-09T07:39:20.199Z,95361.55
2019-02-09T07:41:55.649Z,95358.34
2019-02-09T07:44:29.447Z,95356.12
2019-02-09T07:47:04.118Z,95356.39
2019-02-09T07:49:38.274Z,95362.73
2019-02-09T07:52:12.538Z,95367.97
2019-02-09T07:54:46.532Z,95360.03
2019-02-09T07:57:20.520Z,95358.31
2019-02-09T07:59:54.942Z,95361.90
2019-02-09T08:02:28.801Z,95353.53
2019-02-09T08:05:03.531Z,95355.88
2019-02-09T08:07:37.615Z,95354.94
2019-02-09T08:10:14.294Z,95361.26
2019-02-09T08:12:49.292Z,95349.61
2019-02-09T08:15:24.909Z,95348.16
2019-02-09T08:17:58.577Z,95347.77
2019-02-09T08:20:34.073Z,95350.61
2019-02-09T08:23:09.418Z,95346.33
2019-02-09T08:25:43.992Z,95351.81
2019-02-09T08:28:22.820Z,95345.48
2019-02-09T08:30:56.959Z,95347.77
2019-02-09T08:33:30.616Z,95343.45
2019-02-09T08:36:16.150Z,95345.27
2019-02-09T08:38:53.880Z,95344.03
2019-02-09T08:41:27.775Z,95348.41
2019-02-09T08:44:01.300Z,95343.98
2019-02-09T08:46:35.722Z,95347.65
2019-02-09T08:49:09.350Z,95350.67
2019-02-09T08:51:44.272Z,95345.34
2019-02-09T08:54:21.444Z,95344.64
2019-02-09T08:56:55.794Z,95339.22
2019-02-09T08:59:29.576Z,95349.78
2019-02-09T09:02:06.334Z,95347.23
2019-02-09T09:04:39.543Z,95344.34
2019-02-09T09:07:13.523Z,95349.70
2019-02-09T09:09:47.394Z,95347.53
2019-02-09T09:12:20.830Z,95351.68
2019-02-09T09:14:54.465Z,95356.69
2019-02-09T09:17:29.036Z,95356.08
2019-02-09T09:20:03.955Z,95353.89
2019-02-09T09:22:37.508Z,95357.79
2019-02-09T09:25:11.482Z,95348.01
2019-02-09T09:27:46.499Z,95348.38
2019-02-09T09:30:22.257Z,95342.19
2019-02-09T09:32:56.041Z,95342.22
2019-02-09T09:35:32.682Z,95339.98
2019-02-09T09:38:07.210Z,95338.59
2019-02-09T09:40:42.816Z,95337.43
2019-02-09T09:43:19.224Z,95330.45
2019-02-09T09:45:55.354Z,95327.27
2019-02-09T09:48:29.656Z,95327.30
2019-02-09T09:51:10.744Z,95331.66
2019-02-09T09:53:45.106Z,95330.13
2019-02-09T09:56:19.266Z,95326.05
2019-02-09T09:58:53.923Z,95325.22
2019-02-09T10:01:27.648Z,95324.56
2019-02-09T10:04:04.130Z,95324.00
2019-02-09T10:06:38.058Z,95324.73
2019-02-09T10:09:12.355Z,95324.07
2019-02-09T10:11:45.761Z,95322.73
2019-02-09T10:14:20.269Z,95325.08
2019-02-09T10:17:05.103Z,95322.37
2019-02-09T10:19:43.192Z,95324.70
2019-02-09T10:22:18.793Z,95316.84
2019-02-09T10:24:52.921Z,95308.58
2019-02-09T10:27:26.826Z,95310.50
2019-02-09T10:30:01.099Z,95308.93
2019-02-09T10:32:34.833Z,95298.98
2019-02-09T10:35:09.864Z,95300.22
2019-02-09T10:37:44.335Z,95303.36
2019-02-09T10:40:25.139Z,95300.95
2019-02-09T10:43:13.026Z,95303.45
2019-02-09T10:45:58.658Z,95300.99
2019-02-09T10:48:42.410Z,95290.98
2019-02-09T10:51:22.084Z,95283.87
2019-02-09T10:53:55.868Z,95276.69
2019-02-09T10:56:29.569Z,95274.97
2019-02-09T10:59:03.360Z,95272.52
2019-02-09T11:01:42.134Z,95270.99
2019-02-09T11:04:27.094Z,95276.44
2019-02-09T11:07:13.605Z,95276.59
2019-02-09T11:10:00.973Z,95275.91
2019-02-09T11:12:46.888Z,95265.20
2019-02-09T11:15:31.428Z,95270.50
2019-02-09T11:18:05.417Z,95264.10
2019-02-09T11:20:45.333Z,95259.62
2019-02-09T11:23:19.380Z,95263.06
2019-02-09T11:25:53.368Z,95256.15
2019-02-09T11:28:27.642Z,95251.37
2019-02-09T11:31:01.460Z,95257.39
2019-02-09T11:33:37.378Z,95246.55
2019-02-09T11:36:14.431Z,95241.39
2019-02-09T11:39:00.577Z,95235.73
2019-02-09T11:41:45.936Z,95239.98
2019-02-09T11:44:24.340Z,95238.59
2019-02-09T11:46:58.234Z,95235.11
2019-02-09T11:49:33.219Z,95229.74
2019-02-09T11:52:07.809Z,95228.70
2019-02-09T11:54:46.016Z,95223.10
2019-02-09T11:57:20.304Z,95219.51
2019-02-09T11:59:54.462Z,95221.66
2019-02-09T12:02:28.434Z,95218.91
2019-02-09T12:05:02.332Z,95216.20
2019-02-09T12:07:36.127Z,95206.47
2019-02-09T12:10:12.184Z,95201.20
2019-02-09T12:12:45.802Z,95209.66
2019-02-09T12:15:25.558Z,95200.86
2019-02-09T12:17:59.610Z,95195.09
2019-02-09T12:20:33.568Z,95191.71
2019-02-09T12:23:10.940Z,95195.08
2019-02-09T12:25:44.772Z,95191.72
2019-02-09T12:28:18.352Z,95186.38
2019-02-09T12:30:52.220Z,95187.06
2019-02-09T12:33:26.298Z,95184.92
2019-02-09T12:36:02.833Z,95177.73
2019-02-09T12:38:48.539Z,95177.14
2019-02-09T12:41:33.551Z,95175.09
2019-02-09T12:44:08.594Z,95172.83
2019-02-09T12:46:42.520Z,95174.11
2019-02-09T12:49:17.039Z,95164.83
2019-02-09T12:51:51.198Z,95161.48
2019-02-09T12:54:25.578Z,95162.49
2019-02-09T12:56:59.298Z,95158.33
2019-02-09T12:59:32.837Z,95161.32
2019-02-09T13:02:07.332Z,95160.66
2019-02-09T13:04:40.794Z,95158.51
2019-02-09T13:07:14.360Z,95161.36
2019-02-09T13:09:47.858Z,95160.25
2019-02-09T13:12:21.217Z,95156.77
2019-02-09T13:15:07.070Z,95157.05
2019-02-09T13:17:53.420Z,95158.42
2019-02-09T13:20:36.783Z,95150.55
2019-02-09T13:23:11.470Z,95140.48
2019-02-09T13:25:44.722Z,95147.06
2019-02-09T13:28:17.751Z,95140.80
2019-02-09T13:30:51.035Z,95136.17
2019-02-09T13:33:24.973Z,95142.15
2019-02-09T13:35:58.999Z,95139.34
2019-02-09T13:38:45.212Z,95129.39
2019-02-09T13:41:31.445Z,95133.73
2019-02-09T13:44:16.402Z,95125.69
2019-02-09T13:46:50.114Z,95121.27
2019-02-09T13:49:32.859Z,95124.84
2019-02-09T13:52:06.494Z,95130.78
2019-02-09T13:54:40.431Z,95123.30
2019-02-09T13:57:14.884Z,95122.95
2019-02-09T13:59:48.971Z,95127.48
2019-02-09T14:02:23.721Z,95122.62
2019-02-09T14:04:57.283Z,95126.83
2019-02-09T14:07:30.794Z,95134.33
2019-02-09T14:10:04.332Z,95130.66
2019-02-09T14:12:38.374Z,95127.73
2019-02-09T14:15:26.090Z,95122.66
2019-02-09T14:18:02.406Z,95129.85
2019-02-09T14:20:36.204Z,95127.08
2019-02-09T14:23:10.066Z,95126.27
2019-02-09T14:25:45.679Z,95126.38
2019-02-09T14:28:21.086Z,95128.66
2019-02-09T14:30:55.188Z,95132.30
2019-02-09T14:33:29.619Z,95128.95
2019-02-09T14:36:03.559Z,95128.50
2019-02-09T14:38:37.580Z,95130.50
2019-02-09T14:41:16.460Z,95129.02
2019-02-09T14:43:51.610Z,95128.57
2019-02-09T14:46:25.860Z,95128.42
2019-02-09T14:49:02.223Z,95131.55
2019-02-09T14:51:36.183Z,95132.27
2019-02-09T14:54:21.866Z,95131.49
2019-02-09T14:57:05.846Z,95131.05
2019-02-09T14:59:40.920Z,95129.41
2019-02-09T15:02:20.914Z,95126.64
2019-02-09T15:04:55.223Z,95127.48
2019-02-09T15:07:31.879Z,95130.27
2019-02-09T15:10:06.015Z,95134.55
2019-02-09T15:12:39.934Z,95123.32
2019-02-09T15:15:23.056Z,95131.77
2019-02-09T15:17:56.724Z,95135.18
2019-02-09T15:20:33.066Z,95136.42
2019-02-09T15:23:06.944Z,95145.37
2019-02-09T15:25:40.424Z,95144.47
2019-02-09T15:28:15.531Z,95146.98
2019-02-09T15:30:49.208Z,95147.35
2019-02-09T15:33:22.931Z,95144.53
2019-02-09T15:35:58.684Z,95153.09
2019-02-09T15:38:32.551Z,95152.19
2019-02-09T15:41:15.121Z,95155.18
2019-02-09T15:43:50.222Z,95160.74
2019-02-09T15:46:24.984Z,95164.13
2019-02-09T15:49:02.091Z,95175.92
2019-02-09T15:51:36.791Z,95171.94
2019-02-09T15:54:10.757Z,95190.69
2019-02-09T15:56:45.800Z,95189.34
2019-02-09T15:59:19.550Z,95190.77
2019-02-09T16:01:54.564Z,95192.10
2019-02-09T16:04:30.107Z,95191.93
2019-02-09T16:07:04.254Z,95193.66
2019-02-09T16:09:39.171Z,95190.02
2019-02-09T16:12:15.844Z,95193.75
2019-02-09T16:14:49.906Z,95197.61
2019-02-09T16:17:24.461Z,95201.94
2019-02-09T16:19:58.061Z,95198.22
2019-02-09T16:22:33.032Z,95197.91
2019-02-09T16:25:07.773Z,95196.08
2019-02-09T16:27:41.740Z,95195.27
2019-02-09T16:30:18.778Z,95186.48
2019-02-09T16:32:52.558Z,95195.28
2019-02-09T16:35:26.700Z,95195.99
2019-02-09T16:38:01.007Z,95197.09
2019-02-09T16:40:44.376Z,95198.41
2019-02-09T16:43:28.667Z,95199.79
2019-02-09T16:46:11.358Z,95200.15
2019-02-09T16:48:45.918Z,95204.75
2019-02-09T16:51:21.179Z,95198.75
2019-02-09T16:53:55.733Z,95206.57
2019-02-09T16:56:30.218Z,95203.40
2019-02-09T16:59:04.414Z,95196.70
2019-02-09T17:01:38.132Z,95207.13
2019-02-09T17:04:12.762Z,95211.05
2019-02-09T17:06:47.431Z,95219.59
2019-02-09T17:09:21.219Z,95226.59
2019-02-09T17:11:55.123Z,95223.00
2019-02-09T17:14:28.930Z,95220.91
2019-02-09T17:17:02.932Z,95229.77
2019-02-09T17:19:37.414Z,95235.54
2019-02-09T17:22:11.589Z,95232.38
2019-02-09T17:24:45.285Z,95235.20
2019-02-09T17:27:19.387Z,95236.66
2019-02-09T17:29:53.854Z,95238.20
2019-02-09T17:32:27.306Z,95241.14
2019-02-09T17:35:01.741Z,95243.32
2019-02-09T17:37:35.344Z,95255.91
2019-02-09T17:40:20.970Z,95250.61
2019-02-09T17:42:55.393Z,95253.20
2019-02-09T17:45:43.005Z,95248.64
2019-02-09T17:48:16.932Z,95258.70
2019-02-09T17:50:51.773Z,95261.44
2019-02-09T17:53:27.251Z,95260.80
2019-02-09T17:56:01.754Z,95260.55
2019-02-09T17:58:36.456Z,95263.17
2019-02-09T18:01:15.398Z,95269.71
2019-02-09T18:03:49.968Z,95271.70
2019-02-09T18:06:23.575Z,95270.42
2019-02-09T18:08:57.078Z,95272.94
2019-02-09T18:11:30.506Z,95273.91
2019-02-09T18:14:05.409Z,95274.94
2019-02-09T18:16:39.190Z,95276.29
2019-02-09T18:19:12.250Z,95271.08
2019-02-09T18:21:45.610Z,95273.28
2019-02-09T18:24:19.103Z,95280.50
2019-02-09T18:26:53.086Z,95280.42
2019-02-09T18:29:26.530Z,95282.09
2019-02-09T18:32:14.208Z,95273.89
2019-02-09T18:34:57.482Z,95273.49
2019-02-09T18:37:31.996Z,95273.84
2019-02-09T18:40:18.881Z,95270.28
2019-02-09T18:42:55.134Z,95267.13
2019-02-09T18:45:29.914Z,95270.03
2019-02-09T18:48:03.742Z,95269.00
2019-02-09T18:50:37.752Z,95274.05
2019-02-09T18:53:12.818Z,95277.84
2019-02-09T18:55:46.544Z,95275.81
2019-02-09T18:58:20.552Z,95271.28
2019-02-09T19:00:54.627Z,95268.50
2019-02-09T19:03:29.112Z,95269.25
2019-02-09T19:06:02.865Z,95267.34
2019-02-09T19:08:45.202Z,95272.37
2019-02-09T19:11:18.929Z,95273.22
2019-02-09T19:13:53.046Z,95272.79
2019-02-09T19:16:27.185Z,95273.78
2019-02-09T19:19:01.651Z,95278.55
2019-02-09T19:21:35.554Z,95275.13
2019-02-09T19:24:09.400Z,95276.99
2019-02-09T19:26:42.591Z,95285.19
2019-02-09T19:29:16.009Z,95281.16
2019-02-09T19:31:49.610Z,95281.40
2019-02-09T19:34:24.202Z,95283.61
2019-02-09T19:36:58.104Z,95285.77
2019-02-09T19:39:32.885Z,95283.06
2019-02-09T19:42:18.186Z,95281.88
2019-02-09T19:45:04.046Z,95276.53
2019-02-09T19:47:49.966Z,95270.28
2019-02-09T19:50:35.911Z,95273.80
2019-02-09T19:53:22.039Z,95275.83
2019-02-09T19:56:04.209Z,95280.51
2019-02-09T19:58:37.958Z,95285.36
2019-02-09T20:01:11.494Z,95291.92
2019-02-09T20:03:45.112Z,95291.52
2019-02-09T20:06:18.740Z,95292.33
2019-02-09T20:08:51.892Z,95295.44
2019-02-09T20:11:24.011Z,95302.21
2019-02-09T20:13:57.290Z,95301.37
2019-02-09T20:16:30.775Z,95301.89
2019-02-09T20:19:05.585Z,95303.11
2019-02-09T20:21:39.413Z,95302.96
2019-02-09T20:24:12.914Z,95302.89
2019-02-09T20:26:46.454Z,95307.97
2019-02-09T20:29:20.936Z,95316.30
2019-02-09T20:31:54.794Z,95318.25
2019-02-09T20:34:30.606Z,95317.52
2019-02-09T20:37:04.636Z,95312.80
2019-02-09T20:39:38.979Z,95325.24
2019-02-09T20:42:12.961Z,95331.98
2019-02-09T20:44:47.303Z,95334.78
2019-02-09T20:47:21.432Z,95331.20
2019-02-09T20:49:55.398Z,95332.55
2019-02-09T20:52:39.741Z,95331.60
2019-02-09T20:55:13.748Z,95334.38
2019-02-09T20:58:01.149Z,95322.02
2019-02-09T21:00:46.035Z,95324.16
2019-02-09T21:03:25.006Z,95334.72
2019-02-09T21:05:58.877Z,95333.74
2019-02-09T21:08:32.628Z,95333.59
2019-02-09T21:11:08.215Z,95337.35
2019-02-09T21:13:41.974Z,95347.34
2019-02-09T21:16:15.624Z,95344.90
2019-02-09T21:18:49.716Z,95347.39
2019-02-09T21:21:23.283Z,95346.05
2019-02-09T21:23:56.852Z,95354.36
2019-02-09T21:26:30.432Z,95349.80
2019-02-09T21:29:04.106Z,95350.17
2019-02-09T21:31:38.200Z,95345.28
2019-02-09T21:34:12.240Z,95344.95
2019-02-09T21:36:45.659Z,95340.55
2019-02-09T21:39:18.719Z,95335.01
2019-02-09T21:41:52.780Z,95332.71
2019-02-09T21:44:28.228Z,95325.70
2019-02-09T21:47:02.441Z,95310.53
2019-02-09T21:49:37.320Z,95301.67
2019-02-09T21:52:11.152Z,95306.89
2019-02-09T21:54:46.027Z,95316.13
2019-02-09T21:57:19.978Z,95324.05
2019-02-09T21:59:53.885Z,95314.44
2019-02-09T22:02:42.617Z,95319.66
2019-02-09T22:05:27.854Z,95323.90
2019-02-09T22:08:19.028Z,95321.95
2019-02-09T22:10:47.026Z,95318.36
2019-02-09T22:13:33.798Z,95319.33
2019-02-09T22:16:10.010Z,95315.41
2019-02-09T22:18:43.680Z,95308.08
2019-02-09T22:21:17.397Z,95307.64
2019-02-09T22:23:53.712Z,95307.16
2019-02-09T22:26:27.470Z,95307.00
2019-02-09T22:29:01.428Z,95291.67
2019-02-09T22:31:34.852Z,95288.72
2019-02-09T22:34:07.901Z,95297.53
2019-02-09T22:36:39.992Z,95300.68
2019-02-09T22:39:15.304Z,95321.63
2019-02-09T22:41:49.454Z,95325.59
2019-02-09T22:44:35.280Z,95334.03
2019-02-09T22:47:11.758Z,95336.28
2019-02-09T22:49:46.236Z,95333.30
2019-02-09T22:52:19.260Z,95332.16
2019-02-09T22:54:53.344Z,95333.30
2019-02-09T22:57:26.776Z,95338.52
2019-02-09T23:00:00.226Z,95341.63
2019-02-09T23:02:33.584Z,95337.88
2019-02-09T23:05:44.534Z,95337.91
2019-02-09T23:08:18.368Z,95337.91
2019-02-09T23:10:51.957Z,95337.97
2019-02-09T23:13:25.644Z,95349.41
2019-02-09T23:16:00.368Z,95354.28
2019-02-09T23:18:33.942Z,95349.07
2019-02-09T23:21:08.962Z,95348.45
2019-02-09T23:23:42.336Z,95351.20
2019-02-09T23:26:15.660Z,95344.04
2019-02-09T23:29:01.406Z,95343.41
2019-02-09T23:31:45.831Z,95344.39
2019-02-09T23:34:30.656Z,95347.15
2019-02-09T23:37:04.598Z,95342.91
2019-02-09T23:39:47.726Z,95352.68
2019-02-09T23:42:33.339Z,95354.49
2019-02-09T23:45:06.556Z,95352.35
2019-02-09T23:47:40.084Z,95348.77
2019-02-09T23:50:16.646Z,95350.09
2019-02-09T23:52:55.924Z,95342.41
2019-02-09T23:55:29.362Z,95349.59
2019-02-09T23:58:02.824Z,95356.25
